sensor_id;sensor_type;location;lat;lon;timestamp;P1;durP1;ratioP1;P2;durP2;ratioP2
50379;SDS011;37474;59.468;18.040;2024-02-15T00:00:22;20.20;;;6.83;;
50379;SDS011;37474;59.468;18.040;2024-02-15T00:02:52;19.90;;;7.03;;
50379;SDS011;37474;59.468;18.040;2024-02-15T00:05:21;18.07;;;6.47;;
50379;SDS011;37474;59.468;18.040;2024-02-15T00:07:48;21.67;;;7.00;;
50379;SDS011;37474;59.468;18.040;2024-02-15T00:10:17;21.57;;;6.80;;
50379;SDS011;37474;59.468;18.040;2024-02-15T00:12:45;16.60;;;6.03;;
50379;SDS011;37474;59.468;18.040;2024-02-15T00:15:14;13.93;;;6.17;;
50379;SDS011;37474;59.468;18.040;2024-02-15T00:17:43;22.90;;;6.97;;
50379;SDS011;37474;59.468;18.040;2024-02-15T00:20:13;28.07;;;8.60;;
50379;SDS011;37474;59.468;18.040;2024-02-15T00:22:41;26.80;;;8.07;;
50379;SDS011;37474;59.468;18.040;2024-02-15T00:25:09;38.43;;;8.83;;
50379;SDS011;37474;59.468;18.040;2024-02-15T00:27:37;41.47;;;8.67;;
50379;SDS011;37474;59.468;18.040;2024-02-15T00:30:06;29.33;;;7.23;;
50379;SDS011;37474;59.468;18.040;2024-02-15T00:32:35;24.13;;;7.53;;
50379;SDS011;37474;59.468;18.040;2024-02-15T00:35:06;31.70;;;7.57;;
50379;SDS011;37474;59.468;18.040;2024-02-15T00:37:36;26.07;;;8.13;;
50379;SDS011;37474;59.468;18.040;2024-02-15T00:40:06;37.03;;;7.57;;
50379;SDS011;37474;59.468;18.040;2024-02-15T00:42:35;29.48;;;7.10;;
50379;SDS011;37474;59.468;18.040;2024-02-15T00:45:03;48.13;;;9.00;;
50379;SDS011;37474;59.468;18.040;2024-02-15T00:47:32;32.90;;;7.17;;
50379;SDS011;37474;59.468;18.040;2024-02-15T00:50:00;23.67;;;7.63;;
50379;SDS011;37474;59.468;18.040;2024-02-15T00:52:31;36.77;;;8.43;;
50379;SDS011;37474;59.468;18.040;2024-02-15T00:54:59;27.98;;;8.98;;
50379;SDS011;37474;59.468;18.040;2024-02-15T00:57:27;30.97;;;7.70;;
50379;SDS011;37474;59.468;18.040;2024-02-15T00:59:55;36.80;;;8.73;;
50379;SDS011;37474;59.468;18.040;2024-02-15T01:02:23;40.27;;;7.47;;
50379;SDS011;37474;59.468;18.040;2024-02-15T01:04:51;28.13;;;7.40;;
50379;SDS011;37474;59.468;18.040;2024-02-15T01:07:21;47.15;;;8.95;;
50379;SDS011;37474;59.468;18.040;2024-02-15T01:09:55;28.37;;;7.77;;
50379;SDS011;37474;59.468;18.040;2024-02-15T01:12:23;31.60;;;8.00;;
50379;SDS011;37474;59.468;18.040;2024-02-15T01:14:51;43.13;;;7.90;;
50379;SDS011;37474;59.468;18.040;2024-02-15T01:17:19;28.03;;;6.87;;
50379;SDS011;37474;59.468;18.040;2024-02-15T01:19:50;40.10;;;8.27;;
50379;SDS011;37474;59.468;18.040;2024-02-15T01:22:18;29.83;;;8.27;;
50379;SDS011;37474;59.468;18.040;2024-02-15T01:24:46;51.10;;;8.60;;
50379;SDS011;37474;59.468;18.040;2024-02-15T01:27:15;28.20;;;8.00;;
50379;SDS011;37474;59.468;18.040;2024-02-15T01:29:44;34.38;;;7.53;;
50379;SDS011;37474;59.468;18.040;2024-02-15T01:32:12;24.53;;;7.47;;
50379;SDS011;37474;59.468;18.040;2024-02-15T01:34:40;25.57;;;8.13;;
50379;SDS011;37474;59.468;18.040;2024-02-15T01:37:09;36.90;;;8.20;;
50379;SDS011;37474;59.468;18.040;2024-02-15T01:39:37;33.60;;;8.57;;
50379;SDS011;37474;59.468;18.040;2024-02-15T01:42:05;72.70;;;8.50;;
50379;SDS011;37474;59.468;18.040;2024-02-15T01:44:34;29.63;;;6.80;;
50379;SDS011;37474;59.468;18.040;2024-02-15T01:47:03;35.88;;;7.50;;
50379;SDS011;37474;59.468;18.040;2024-02-15T01:49:31;20.37;;;6.63;;
50379;SDS011;37474;59.468;18.040;2024-02-15T01:52:00;22.70;;;7.30;;
50379;SDS011;37474;59.468;18.040;2024-02-15T01:54:30;19.17;;;6.78;;
50379;SDS011;37474;59.468;18.040;2024-02-15T01:56:59;25.97;;;7.07;;
50379;SDS011;37474;59.468;18.040;2024-02-15T01:59:27;15.97;;;6.30;;
50379;SDS011;37474;59.468;18.040;2024-02-15T02:01:56;22.43;;;7.33;;
50379;SDS011;37474;59.468;18.040;2024-02-15T02:04:25;17.80;;;6.20;;
50379;SDS011;37474;59.468;18.040;2024-02-15T02:06:52;48.63;;;7.67;;
50379;SDS011;37474;59.468;18.040;2024-02-15T02:09:25;21.77;;;6.30;;
50379;SDS011;37474;59.468;18.040;2024-02-15T02:11:54;63.87;;;8.10;;
50379;SDS011;37474;59.468;18.040;2024-02-15T02:14:22;22.50;;;6.90;;
50379;SDS011;37474;59.468;18.040;2024-02-15T02:16:50;31.80;;;7.30;;
50379;SDS011;37474;59.468;18.040;2024-02-15T02:19:21;23.17;;;7.13;;
50379;SDS011;37474;59.468;18.040;2024-02-15T02:21:49;51.80;;;7.88;;
50379;SDS011;37474;59.468;18.040;2024-02-15T02:24:19;21.67;;;7.03;;
50379;SDS011;37474;59.468;18.040;2024-02-15T02:26:51;26.37;;;7.63;;
50379;SDS011;37474;59.468;18.040;2024-02-15T02:29:23;45.50;;;7.83;;
50379;SDS011;37474;59.468;18.040;2024-02-15T02:31:51;20.50;;;6.60;;
50379;SDS011;37474;59.468;18.040;2024-02-15T02:34:19;25.70;;;7.07;;
50379;SDS011;37474;59.468;18.040;2024-02-15T02:36:49;21.93;;;6.30;;
50379;SDS011;37474;59.468;18.040;2024-02-15T02:39:17;18.77;;;6.77;;
50379;SDS011;37474;59.468;18.040;2024-02-15T02:41:45;38.50;;;8.40;;
50379;SDS011;37474;59.468;18.040;2024-02-15T02:44:15;17.27;;;6.40;;
50379;SDS011;37474;59.468;18.040;2024-02-15T02:46:43;33.43;;;6.80;;
50379;SDS011;37474;59.468;18.040;2024-02-15T02:49:11;19.47;;;6.43;;
50379;SDS011;37474;59.468;18.040;2024-02-15T02:51:39;19.90;;;6.93;;
50379;SDS011;37474;59.468;18.040;2024-02-15T02:54:07;20.07;;;6.70;;
50379;SDS011;37474;59.468;18.040;2024-02-15T02:56:35;18.30;;;6.43;;
50379;SDS011;37474;59.468;18.040;2024-02-15T02:59:03;98.77;;;7.67;;
50379;SDS011;37474;59.468;18.040;2024-02-15T03:01:34;27.95;;;6.32;;
50379;SDS011;37474;59.468;18.040;2024-02-15T03:04:03;38.88;;;6.53;;
50379;SDS011;37474;59.468;18.040;2024-02-15T03:06:31;93.23;;;7.70;;
50379;SDS011;37474;59.468;18.040;2024-02-15T03:09:00;14.93;;;6.07;;
50379;SDS011;37474;59.468;18.040;2024-02-15T03:11:33;27.50;;;6.57;;
50379;SDS011;37474;59.468;18.040;2024-02-15T03:14:04;16.17;;;5.87;;
50379;SDS011;37474;59.468;18.040;2024-02-15T03:16:32;21.63;;;6.30;;
50379;SDS011;37474;59.468;18.040;2024-02-15T03:19:02;18.40;;;6.67;;
50379;SDS011;37474;59.468;18.040;2024-02-15T03:21:33;22.83;;;6.53;;
50379;SDS011;37474;59.468;18.040;2024-02-15T03:24:02;13.77;;;5.87;;
50379;SDS011;37474;59.468;18.040;2024-02-15T03:26:31;20.23;;;6.33;;
50379;SDS011;37474;59.468;18.040;2024-02-15T03:29:03;17.73;;;6.43;;
50379;SDS011;37474;59.468;18.040;2024-02-15T03:31:31;41.07;;;7.07;;
50379;SDS011;37474;59.468;18.040;2024-02-15T03:34:02;14.18;;;5.93;;
50379;SDS011;37474;59.468;18.040;2024-02-15T03:36:31;45.65;;;6.88;;
50379;SDS011;37474;59.468;18.040;2024-02-15T03:39:00;27.17;;;6.23;;
50379;SDS011;37474;59.468;18.040;2024-02-15T03:41:28;18.10;;;6.07;;
50379;SDS011;37474;59.468;18.040;2024-02-15T03:43:59;16.87;;;6.23;;
50379;SDS011;37474;59.468;18.040;2024-02-15T03:46:28;23.23;;;6.60;;
50379;SDS011;37474;59.468;18.040;2024-02-15T03:48:58;21.53;;;6.53;;
50379;SDS011;37474;59.468;18.040;2024-02-15T03:51:28;14.63;;;6.20;;
50379;SDS011;37474;59.468;18.040;2024-02-15T03:53:58;23.17;;;7.17;;
50379;SDS011;37474;59.468;18.040;2024-02-15T03:56:28;16.93;;;6.30;;
50379;SDS011;37474;59.468;18.040;2024-02-15T03:58:58;24.23;;;6.57;;
50379;SDS011;37474;59.468;18.040;2024-02-15T04:01:26;39.37;;;6.97;;
50379;SDS011;37474;59.468;18.040;2024-02-15T04:03:56;22.05;;;6.50;;
50379;SDS011;37474;59.468;18.040;2024-02-15T04:06:24;26.03;;;6.70;;
50379;SDS011;37474;59.468;18.040;2024-02-15T04:08:56;19.67;;;6.20;;
50379;SDS011;37474;59.468;18.040;2024-02-15T04:11:24;27.33;;;6.70;;
50379;SDS011;37474;59.468;18.040;2024-02-15T04:13:52;14.27;;;5.63;;
50379;SDS011;37474;59.468;18.040;2024-02-15T04:16:23;25.63;;;6.40;;
50379;SDS011;37474;59.468;18.040;2024-02-15T04:18:51;21.27;;;6.47;;
50379;SDS011;37474;59.468;18.040;2024-02-15T04:21:22;29.10;;;6.27;;
50379;SDS011;37474;59.468;18.040;2024-02-15T04:23:53;21.87;;;6.13;;
50379;SDS011;37474;59.468;18.040;2024-02-15T04:26:23;20.87;;;6.10;;
50379;SDS011;37474;59.468;18.040;2024-02-15T04:28:53;28.57;;;5.73;;
50379;SDS011;37474;59.468;18.040;2024-02-15T04:31:21;19.43;;;5.77;;
50379;SDS011;37474;59.468;18.040;2024-02-15T04:33:53;19.53;;;5.73;;
50379;SDS011;37474;59.468;18.040;2024-02-15T04:36:21;20.73;;;6.93;;
50379;SDS011;37474;59.468;18.040;2024-02-15T04:38:51;16.60;;;6.40;;
50379;SDS011;37474;59.468;18.040;2024-02-15T04:41:20;18.90;;;6.93;;
50379;SDS011;37474;59.468;18.040;2024-02-15T04:43:51;23.88;;;6.95;;
50379;SDS011;37474;59.468;18.040;2024-02-15T04:46:19;64.30;;;7.82;;
50379;SDS011;37474;59.468;18.040;2024-02-15T04:48:48;38.00;;;6.83;;
50379;SDS011;37474;59.468;18.040;2024-02-15T04:51:17;36.10;;;7.03;;
50379;SDS011;37474;59.468;18.040;2024-02-15T04:53:46;17.10;;;6.67;;
50379;SDS011;37474;59.468;18.040;2024-02-15T04:56:15;16.90;;;6.65;;
50379;SDS011;37474;59.468;18.040;2024-02-15T04:58:43;18.47;;;6.97;;
50379;SDS011;37474;59.468;18.040;2024-02-15T05:01:16;26.60;;;6.80;;
50379;SDS011;37474;59.468;18.040;2024-02-15T05:03:45;31.47;;;7.97;;
50379;SDS011;37474;59.468;18.040;2024-02-15T05:06:13;30.10;;;7.40;;
50379;SDS011;37474;59.468;18.040;2024-02-15T05:08:41;27.57;;;8.40;;
50379;SDS011;37474;59.468;18.040;2024-02-15T05:11:10;44.30;;;8.23;;
50379;SDS011;37474;59.468;18.040;2024-02-15T05:13:43;22.90;;;7.43;;
50379;SDS011;37474;59.468;18.040;2024-02-15T05:16:12;24.83;;;7.23;;
50379;SDS011;37474;59.468;18.040;2024-02-15T05:18:41;20.83;;;7.20;;
50379;SDS011;37474;59.468;18.040;2024-02-15T05:21:10;36.38;;;7.80;;
50379;SDS011;37474;59.468;18.040;2024-02-15T05:23:38;21.50;;;7.07;;
50379;SDS011;37474;59.468;18.040;2024-02-15T05:26:08;35.17;;;8.88;;
50379;SDS011;37474;59.468;18.040;2024-02-15T05:28:36;57.57;;;8.73;;
50379;SDS011;37474;59.468;18.040;2024-02-15T05:31:12;38.70;;;8.20;;
50379;SDS011;37474;59.468;18.040;2024-02-15T05:33:45;20.23;;;7.03;;
50379;SDS011;37474;59.468;18.040;2024-02-15T05:36:14;55.37;;;7.00;;
50379;SDS011;37474;59.468;18.040;2024-02-15T05:38:45;36.23;;;7.17;;
50379;SDS011;37474;59.468;18.040;2024-02-15T05:41:14;31.73;;;6.80;;
50379;SDS011;37474;59.468;18.040;2024-02-15T05:43:43;31.70;;;7.60;;
50379;SDS011;37474;59.468;18.040;2024-02-15T05:46:11;18.00;;;6.63;;
50379;SDS011;37474;59.468;18.040;2024-02-15T05:48:40;22.80;;;7.63;;
50379;SDS011;37474;59.468;18.040;2024-02-15T05:51:09;17.73;;;6.97;;
50379;SDS011;37474;59.468;18.040;2024-02-15T05:53:37;17.15;;;6.40;;
50379;SDS011;37474;59.468;18.040;2024-02-15T05:56:08;22.52;;;6.65;;
50379;SDS011;37474;59.468;18.040;2024-02-15T05:58:36;19.07;;;6.63;;
50379;SDS011;37474;59.468;18.040;2024-02-15T06:01:06;24.48;;;7.72;;
50379;SDS011;37474;59.468;18.040;2024-02-15T06:03:38;23.33;;;8.30;;
50379;SDS011;37474;59.468;18.040;2024-02-15T06:06:10;41.38;;;9.02;;
50379;SDS011;37474;59.468;18.040;2024-02-15T06:08:39;29.97;;;7.80;;
50379;SDS011;37474;59.468;18.040;2024-02-15T06:11:07;18.37;;;7.20;;
50379;SDS011;37474;59.468;18.040;2024-02-15T06:13:36;32.73;;;7.67;;
50379;SDS011;37474;59.468;18.040;2024-02-15T06:16:04;18.20;;;7.13;;
50379;SDS011;37474;59.468;18.040;2024-02-15T06:18:35;57.63;;;8.03;;
50379;SDS011;37474;59.468;18.040;2024-02-15T06:21:05;35.17;;;7.90;;
50379;SDS011;37474;59.468;18.040;2024-02-15T06:23:35;24.30;;;7.23;;
50379;SDS011;37474;59.468;18.040;2024-02-15T06:26:03;17.75;;;6.60;;
50379;SDS011;37474;59.468;18.040;2024-02-15T06:28:32;28.77;;;8.17;;
50379;SDS011;37474;59.468;18.040;2024-02-15T06:31:20;81.80;;;8.77;;
50379;SDS011;37474;59.468;18.040;2024-02-15T06:34:05;34.17;;;7.57;;
50379;SDS011;37474;59.468;18.040;2024-02-15T06:36:52;35.57;;;7.50;;
50379;SDS011;37474;59.468;18.040;2024-02-15T06:39:39;48.73;;;7.90;;
50379;SDS011;37474;59.468;18.040;2024-02-15T06:42:11;24.40;;;7.53;;
50379;SDS011;37474;59.468;18.040;2024-02-15T06:44:42;28.80;;;7.67;;
50379;SDS011;37474;59.468;18.040;2024-02-15T06:47:11;24.63;;;8.03;;
50379;SDS011;37474;59.468;18.040;2024-02-15T06:49:39;25.40;;;8.07;;
50379;SDS011;37474;59.468;18.040;2024-02-15T06:52:08;33.60;;;8.93;;
50379;SDS011;37474;59.468;18.040;2024-02-15T06:54:39;37.53;;;8.55;;
50379;SDS011;37474;59.468;18.040;2024-02-15T06:57:09;102.30;;;10.07;;
50379;SDS011;37474;59.468;18.040;2024-02-15T06:59:37;26.90;;;8.67;;
50379;SDS011;37474;59.468;18.040;2024-02-15T07:02:09;22.80;;;8.50;;
50379;SDS011;37474;59.468;18.040;2024-02-15T07:04:37;36.87;;;10.00;;
50379;SDS011;37474;59.468;18.040;2024-02-15T07:07:05;38.07;;;9.10;;
50379;SDS011;37474;59.468;18.040;2024-02-15T07:09:33;52.20;;;9.67;;
50379;SDS011;37474;59.468;18.040;2024-02-15T07:12:03;30.60;;;8.63;;
50379;SDS011;37474;59.468;18.040;2024-02-15T07:14:32;22.90;;;8.13;;
50379;SDS011;37474;59.468;18.040;2024-02-15T07:17:01;23.67;;;8.47;;
50379;SDS011;37474;59.468;18.040;2024-02-15T07:19:31;27.58;;;8.68;;
50379;SDS011;37474;59.468;18.040;2024-02-15T07:22:03;31.27;;;9.27;;
50379;SDS011;37474;59.468;18.040;2024-02-15T07:24:31;27.10;;;9.20;;
50379;SDS011;37474;59.468;18.040;2024-02-15T07:27:00;29.27;;;9.23;;
50379;SDS011;37474;59.468;18.040;2024-02-15T07:29:29;59.67;;;9.77;;
50379;SDS011;37474;59.468;18.040;2024-02-15T07:32:00;24.27;;;9.10;;
50379;SDS011;37474;59.468;18.040;2024-02-15T07:34:30;26.13;;;9.70;;
50379;SDS011;37474;59.468;18.040;2024-02-15T07:36:59;26.00;;;8.60;;
50379;SDS011;37474;59.468;18.040;2024-02-15T07:39:27;28.77;;;9.20;;
50379;SDS011;37474;59.468;18.040;2024-02-15T07:41:56;26.63;;;9.13;;
50379;SDS011;37474;59.468;18.040;2024-02-15T07:44:24;41.80;;;9.77;;
50379;SDS011;37474;59.468;18.040;2024-02-15T07:46:57;43.50;;;9.57;;
50379;SDS011;37474;59.468;18.040;2024-02-15T07:51:54;20.43;;;8.93;;
50379;SDS011;37474;59.468;18.040;2024-02-15T07:54:23;25.87;;;9.80;;
50379;SDS011;37474;59.468;18.040;2024-02-15T07:56:52;22.50;;;8.90;;
50379;SDS011;37474;59.468;18.040;2024-02-15T07:59:22;23.67;;;8.67;;
50379;SDS011;37474;59.468;18.040;2024-02-15T08:01:50;19.60;;;8.20;;
50379;SDS011;37474;59.468;18.040;2024-02-15T08:04:20;36.20;;;8.53;;
50379;SDS011;37474;59.468;18.040;2024-02-15T08:06:49;30.00;;;9.50;;
50379;SDS011;37474;59.468;18.040;2024-02-15T08:09:20;26.47;;;8.30;;
50379;SDS011;37474;59.468;18.040;2024-02-15T08:11:50;25.10;;;7.97;;
50379;SDS011;37474;59.468;18.040;2024-02-15T08:14:18;22.00;;;7.57;;
50379;SDS011;37474;59.468;18.040;2024-02-15T08:16:47;22.20;;;7.47;;
50379;SDS011;37474;59.468;18.040;2024-02-15T08:19:15;33.43;;;7.10;;
50379;SDS011;37474;59.468;18.040;2024-02-15T08:21:44;26.27;;;7.67;;
50379;SDS011;37474;59.468;18.040;2024-02-15T08:24:17;18.70;;;8.00;;
50379;SDS011;37474;59.468;18.040;2024-02-15T08:26:45;26.03;;;7.50;;
50379;SDS011;37474;59.468;18.040;2024-02-15T08:29:14;15.77;;;7.20;;
50379;SDS011;37474;59.468;18.040;2024-02-15T08:31:42;16.50;;;7.17;;
50379;SDS011;37474;59.468;18.040;2024-02-15T08:34:10;24.83;;;6.90;;
50379;SDS011;37474;59.468;18.040;2024-02-15T08:36:40;14.82;;;7.25;;
50379;SDS011;37474;59.468;18.040;2024-02-15T08:39:10;19.83;;;7.70;;
50379;SDS011;37474;59.468;18.040;2024-02-15T08:41:39;28.20;;;7.30;;
50379;SDS011;37474;59.468;18.040;2024-02-15T08:44:07;19.57;;;7.13;;
50379;SDS011;37474;59.468;18.040;2024-02-15T08:46:38;16.73;;;7.73;;
50379;SDS011;37474;59.468;18.040;2024-02-15T08:49:06;15.93;;;7.67;;
50379;SDS011;37474;59.468;18.040;2024-02-15T08:51:34;28.80;;;7.97;;
50379;SDS011;37474;59.468;18.040;2024-02-15T08:54:03;27.73;;;7.53;;
50379;SDS011;37474;59.468;18.040;2024-02-15T08:56:33;38.60;;;8.10;;
50379;SDS011;37474;59.468;18.040;2024-02-15T08:59:02;35.37;;;8.03;;
50379;SDS011;37474;59.468;18.040;2024-02-15T09:01:30;16.63;;;7.37;;
50379;SDS011;37474;59.468;18.040;2024-02-15T09:04:00;16.77;;;7.47;;
50379;SDS011;37474;59.468;18.040;2024-02-15T09:06:28;23.20;;;8.73;;
50379;SDS011;37474;59.468;18.040;2024-02-15T09:08:57;28.30;;;8.50;;
50379;SDS011;37474;59.468;18.040;2024-02-15T09:11:28;26.23;;;8.53;;
50379;SDS011;37474;59.468;18.040;2024-02-15T09:13:57;19.53;;;8.33;;
50379;SDS011;37474;59.468;18.040;2024-02-15T09:16:25;15.77;;;8.20;;
50379;SDS011;37474;59.468;18.040;2024-02-15T09:18:53;19.77;;;8.13;;
50379;SDS011;37474;59.468;18.040;2024-02-15T09:21:22;29.97;;;8.50;;
50379;SDS011;37474;59.468;18.040;2024-02-15T09:23:52;29.38;;;9.38;;
50379;SDS011;37474;59.468;18.040;2024-02-15T09:26:20;34.90;;;8.80;;
50379;SDS011;37474;59.468;18.040;2024-02-15T09:28:50;26.48;;;7.65;;
50379;SDS011;37474;59.468;18.040;2024-02-15T09:31:21;28.52;;;9.45;;
50379;SDS011;37474;59.468;18.040;2024-02-15T09:33:51;14.47;;;6.57;;
50379;SDS011;37474;59.468;18.040;2024-02-15T09:36:19;32.10;;;8.30;;
50379;SDS011;37474;59.468;18.040;2024-02-15T09:38:47;27.50;;;8.67;;
50379;SDS011;37474;59.468;18.040;2024-02-15T09:41:15;17.03;;;8.53;;
50379;SDS011;37474;59.468;18.040;2024-02-15T09:43:44;20.33;;;8.37;;
50379;SDS011;37474;59.468;18.040;2024-02-15T09:46:12;21.47;;;8.17;;
50379;SDS011;37474;59.468;18.040;2024-02-15T09:48:42;15.23;;;8.30;;
50379;SDS011;37474;59.468;18.040;2024-02-15T09:51:16;14.90;;;8.23;;
50379;SDS011;37474;59.468;18.040;2024-02-15T09:56:14;37.47;;;9.23;;
50379;SDS011;37474;59.468;18.040;2024-02-15T09:58:43;32.00;;;8.70;;
50379;SDS011;37474;59.468;18.040;2024-02-15T10:01:11;15.57;;;7.93;;
50379;SDS011;37474;59.468;18.040;2024-02-15T10:03:42;13.80;;;7.43;;
50379;SDS011;37474;59.468;18.040;2024-02-15T10:06:10;12.80;;;7.87;;
50379;SDS011;37474;59.468;18.040;2024-02-15T10:08:38;17.10;;;7.87;;
50379;SDS011;37474;59.468;18.040;2024-02-15T10:11:06;13.93;;;7.60;;
50379;SDS011;37474;59.468;18.040;2024-02-15T10:13:38;15.87;;;8.23;;
50379;SDS011;37474;59.468;18.040;2024-02-15T10:16:13;13.17;;;7.50;;
50379;SDS011;37474;59.468;18.040;2024-02-15T10:18:44;16.53;;;8.53;;
50379;SDS011;37474;59.468;18.040;2024-02-15T10:21:23;11.93;;;7.13;;
50379;SDS011;37474;59.468;18.040;2024-02-15T10:26:38;14.33;;;7.43;;
50379;SDS011;37474;59.468;18.040;2024-02-15T10:29:07;12.50;;;8.00;;
50379;SDS011;37474;59.468;18.040;2024-02-15T10:31:39;13.07;;;7.70;;
50379;SDS011;37474;59.468;18.040;2024-02-15T10:34:13;16.75;;;7.85;;
50379;SDS011;37474;59.468;18.040;2024-02-15T10:36:42;16.37;;;8.07;;
50379;SDS011;37474;59.468;18.040;2024-02-15T10:39:10;13.10;;;7.87;;
50379;SDS011;37474;59.468;18.040;2024-02-15T10:41:43;15.43;;;8.47;;
50379;SDS011;37474;59.468;18.040;2024-02-15T10:44:14;13.17;;;7.70;;
50379;SDS011;37474;59.468;18.040;2024-02-15T10:46:44;16.37;;;9.47;;
50379;SDS011;37474;59.468;18.040;2024-02-15T10:49:19;28.27;;;19.37;;
50379;SDS011;37474;59.468;18.040;2024-02-15T10:51:50;15.37;;;8.83;;
50379;SDS011;37474;59.468;18.040;2024-02-15T10:54:24;14.70;;;9.27;;
50379;SDS011;37474;59.468;18.040;2024-02-15T10:57:06;20.63;;;10.80;;
50379;SDS011;37474;59.468;18.040;2024-02-15T10:59:39;25.40;;;10.77;;
50379;SDS011;37474;59.468;18.040;2024-02-15T11:02:21;18.23;;;10.63;;
50379;SDS011;37474;59.468;18.040;2024-02-15T11:04:58;25.03;;;10.67;;
50379;SDS011;37474;59.468;18.040;2024-02-15T11:07:31;40.93;;;11.03;;
50379;SDS011;37474;59.468;18.040;2024-02-15T11:10:00;17.97;;;11.13;;
50379;SDS011;37474;59.468;18.040;2024-02-15T11:12:30;23.08;;;9.88;;
50379;SDS011;37474;59.468;18.040;2024-02-15T11:14:58;20.40;;;11.70;;
50379;SDS011;37474;59.468;18.040;2024-02-15T11:17:45;22.57;;;10.10;;
50379;SDS011;37474;59.468;18.040;2024-02-15T11:23:26;21.67;;;10.03;;
50379;SDS011;37474;59.468;18.040;2024-02-15T11:25:57;17.47;;;9.90;;
50379;SDS011;37474;59.468;18.040;2024-02-15T11:28:37;26.40;;;10.80;;
50379;SDS011;37474;59.468;18.040;2024-02-15T11:31:07;19.70;;;10.90;;
50379;SDS011;37474;59.468;18.040;2024-02-15T11:33:43;18.40;;;10.73;;
50379;SDS011;37474;59.468;18.040;2024-02-15T11:36:13;26.00;;;11.63;;
50379;SDS011;37474;59.468;18.040;2024-02-15T11:38:43;23.60;;;11.10;;
50379;SDS011;37474;59.468;18.040;2024-02-15T11:41:11;15.53;;;10.03;;
50379;SDS011;37474;59.468;18.040;2024-02-15T11:43:47;17.43;;;9.47;;
50379;SDS011;37474;59.468;18.040;2024-02-15T11:46:23;12.43;;;8.23;;
50379;SDS011;37474;59.468;18.040;2024-02-15T11:48:53;15.47;;;8.83;;
50379;SDS011;37474;59.468;18.040;2024-02-15T11:51:30;12.47;;;8.67;;
50379;SDS011;37474;59.468;18.040;2024-02-15T11:54:04;10.67;;;7.50;;
50379;SDS011;37474;59.468;18.040;2024-02-15T11:56:52;12.15;;;8.05;;
50379;SDS011;37474;59.468;18.040;2024-02-15T11:59:38;11.50;;;7.70;;
50379;SDS011;37474;59.468;18.040;2024-02-15T12:02:19;12.23;;;7.47;;
50379;SDS011;37474;59.468;18.040;2024-02-15T12:05:05;15.13;;;8.23;;
50379;SDS011;37474;59.468;18.040;2024-02-15T12:07:53;13.60;;;7.90;;
50379;SDS011;37474;59.468;18.040;2024-02-15T12:10:38;11.93;;;8.17;;
50379;SDS011;37474;59.468;18.040;2024-02-15T12:13:24;15.80;;;8.10;;
50379;SDS011;37474;59.468;18.040;2024-02-15T12:16:09;18.13;;;8.90;;
50379;SDS011;37474;59.468;18.040;2024-02-15T12:19:00;19.90;;;9.32;;
50379;SDS011;37474;59.468;18.040;2024-02-15T12:21:30;17.50;;;10.38;;
50379;SDS011;37474;59.468;18.040;2024-02-15T12:24:01;13.63;;;9.20;;
50379;SDS011;37474;59.468;18.040;2024-02-15T12:26:32;14.63;;;8.57;;
50379;SDS011;37474;59.468;18.040;2024-02-15T12:29:01;28.50;;;17.77;;
50379;SDS011;37474;59.468;18.040;2024-02-15T12:31:35;21.43;;;11.50;;
50379;SDS011;37474;59.468;18.040;2024-02-15T12:34:05;24.30;;;12.37;;
50379;SDS011;37474;59.468;18.040;2024-02-15T12:36:34;15.88;;;9.68;;
50379;SDS011;37474;59.468;18.040;2024-02-15T12:41:38;25.53;;;10.03;;
50379;SDS011;37474;59.468;18.040;2024-02-15T12:44:08;14.70;;;9.40;;
50379;SDS011;37474;59.468;18.040;2024-02-15T12:46:36;17.30;;;10.07;;
50379;SDS011;37474;59.468;18.040;2024-02-15T12:49:10;18.05;;;9.88;;
50379;SDS011;37474;59.468;18.040;2024-02-15T12:52:32;17.90;;;9.90;;
50379;SDS011;37474;59.468;18.040;2024-02-15T12:55:07;16.87;;;9.60;;
50379;SDS011;37474;59.468;18.040;2024-02-15T12:57:36;17.37;;;11.43;;
50379;SDS011;37474;59.468;18.040;2024-02-15T13:00:07;14.75;;;9.93;;
50379;SDS011;37474;59.468;18.040;2024-02-15T13:02:40;17.53;;;10.53;;
50379;SDS011;37474;59.468;18.040;2024-02-15T13:05:13;18.77;;;10.23;;
50379;SDS011;37474;59.468;18.040;2024-02-15T13:07:42;18.07;;;10.10;;
50379;SDS011;37474;59.468;18.040;2024-02-15T13:10:10;19.50;;;10.53;;
50379;SDS011;37474;59.468;18.040;2024-02-15T13:15:10;17.93;;;9.73;;
50379;SDS011;37474;59.468;18.040;2024-02-15T13:17:43;17.23;;;10.13;;
50379;SDS011;37474;59.468;18.040;2024-02-15T13:20:12;23.50;;;10.73;;
50379;SDS011;37474;59.468;18.040;2024-02-15T13:22:41;34.43;;;11.63;;
50379;SDS011;37474;59.468;18.040;2024-02-15T13:25:11;22.23;;;10.63;;
50379;SDS011;37474;59.468;18.040;2024-02-15T13:27:39;25.47;;;11.67;;
50379;SDS011;37474;59.468;18.040;2024-02-15T13:30:07;29.77;;;11.97;;
50379;SDS011;37474;59.468;18.040;2024-02-15T13:32:38;22.08;;;11.63;;
50379;SDS011;37474;59.468;18.040;2024-02-15T13:35:08;25.90;;;11.65;;
50379;SDS011;37474;59.468;18.040;2024-02-15T13:37:42;27.47;;;11.47;;
50379;SDS011;37474;59.468;18.040;2024-02-15T13:40:12;17.77;;;10.70;;
50379;SDS011;37474;59.468;18.040;2024-02-15T13:42:42;29.30;;;11.77;;
50379;SDS011;37474;59.468;18.040;2024-02-15T13:45:16;31.10;;;11.53;;
50379;SDS011;37474;59.468;18.040;2024-02-15T13:47:45;21.10;;;11.30;;
50379;SDS011;37474;59.468;18.040;2024-02-15T13:50:14;19.50;;;11.50;;
50379;SDS011;37474;59.468;18.040;2024-02-15T13:52:44;23.40;;;11.13;;
50379;SDS011;37474;59.468;18.040;2024-02-15T13:57:42;28.50;;;11.00;;
50379;SDS011;37474;59.468;18.040;2024-02-15T14:00:11;31.83;;;10.27;;
50379;SDS011;37474;59.468;18.040;2024-02-15T14:02:48;29.40;;;10.87;;
50379;SDS011;37474;59.468;18.040;2024-02-15T14:05:17;26.07;;;11.83;;
50379;SDS011;37474;59.468;18.040;2024-02-15T14:07:51;23.20;;;11.77;;
50379;SDS011;37474;59.468;18.040;2024-02-15T14:10:22;27.60;;;12.00;;
50379;SDS011;37474;59.468;18.040;2024-02-15T14:12:51;37.27;;;11.97;;
50379;SDS011;37474;59.468;18.040;2024-02-15T14:15:21;59.73;;;19.83;;
50379;SDS011;37474;59.468;18.040;2024-02-15T14:17:49;54.67;;;16.77;;
50379;SDS011;37474;59.468;18.040;2024-02-15T14:20:18;30.20;;;14.50;;
50379;SDS011;37474;59.468;18.040;2024-02-15T14:22:48;39.75;;;12.75;;
50379;SDS011;37474;59.468;18.040;2024-02-15T14:25:24;43.60;;;13.37;;
50379;SDS011;37474;59.468;18.040;2024-02-15T14:27:53;32.70;;;10.60;;
50379;SDS011;37474;59.468;18.040;2024-02-15T14:30:22;28.95;;;11.00;;
50379;SDS011;37474;59.468;18.040;2024-02-15T14:33:08;51.77;;;11.33;;
50379;SDS011;37474;59.468;18.040;2024-02-15T14:35:49;26.03;;;10.20;;
50379;SDS011;37474;59.468;18.040;2024-02-15T14:38:20;19.47;;;10.63;;
50379;SDS011;37474;59.468;18.040;2024-02-15T14:40:49;20.90;;;10.37;;
50379;SDS011;37474;59.468;18.040;2024-02-15T14:43:20;33.03;;;11.43;;
50379;SDS011;37474;59.468;18.040;2024-02-15T14:45:49;39.13;;;11.27;;
50379;SDS011;37474;59.468;18.040;2024-02-15T14:48:18;42.53;;;11.60;;
50379;SDS011;37474;59.468;18.040;2024-02-15T14:50:47;47.55;;;11.80;;
50379;SDS011;37474;59.468;18.040;2024-02-15T14:53:18;37.57;;;11.83;;
50379;SDS011;37474;59.468;18.040;2024-02-15T14:55:46;41.57;;;12.10;;